Time;durP1;ratioP1;P1;durP2;ratioP2;P2;SDS_P1;SDS_P2;PMS_P1;PMS_P2;Temp;Humidity;BMP_temperature;BMP_pressure;BME280_temperature;BME280_humidity;BME280_pressure;Samples;Min_cycle;Max_cycle;Signal;HPM_P1;HPM_P2
2021/04/18 00:00:23;;;;;;;6.95;2.85;;;8.70;75.70;;;;;;5001581;28;20490;-88
2021/04/18 00:02:50;;;;;;;8.90;3.72;;;8.60;76.00;;;;;;5017048;28;20026;-87
2021/04/18 00:05:25;;;;;;;10.00;4.28;;;8.60;75.90;;;;;;4999473;28;20053;-87
2021/04/18 00:07:54;;;;;;;14.40;5.25;;;8.60;76.10;;;;;;5011456;28;20027;-88
2021/04/18 00:10:21;;;;;;;13.75;5.50;;;8.60;76.80;;;;;;4991382;28;20386;-88
2021/04/18 00:12:46;;;;;;;9.40;3.88;;;8.50;76.80;;;;;;4964516;28;20038;-88
2021/04/18 00:15:14;;;;;;;9.60;4.45;;;8.60;77.40;;;;;;4979031;28;20031;-88
2021/04/18 00:17:40;;;;;;;6.93;2.50;;;8.50;77.50;;;;;;4995083;28;20022;-88
2021/04/18 00:20:11;;;;;;;10.70;2.70;;;8.50;77.30;;;;;;4966261;28;20030;-87
2021/04/18 00:22:38;;;;;;;7.18;3.25;;;8.50;77.90;;;;;;4982595;28;20049;-87
2021/04/18 00:25:04;;;;;;;9.27;3.15;;;8.50;78.20;;;;;;4998735;28;20513;-88
2021/04/18 00:27:30;;;;;;;7.18;3.05;;;8.40;78.30;;;;;;4982049;28;20485;-87
2021/04/18 00:29:56;;;;;;;8.88;3.22;;;8.40;78.00;;;;;;4965896;28;20025;-87
2021/04/18 00:32:21;;;;;;;9.13;3.17;;;8.40;77.80;;;;;;4982557;28;20061;-87
2021/04/18 00:34:47;;;;;;;7.28;3.40;;;8.30;78.00;;;;;;4998482;28;20029;-87
2021/04/18 00:37:12;;;;;;;7.65;2.90;;;8.30;78.60;;;;;;4965513;28;20058;-87
2021/04/18 00:39:38;;;;;;;7.97;3.50;;;8.30;79.20;;;;;;4966281;28;20029;-87
2021/04/18 00:42:04;;;;;;;7.97;3.00;;;8.30;79.30;;;;;;4997605;28;20116;-87
2021/04/18 00:44:30;;;;;;;7.95;3.63;;;8.30;79.60;;;;;;4997996;28;20025;-87
2021/04/18 00:46:56;;;;;;;8.60;3.38;;;8.20;79.70;;;;;;4979251;28;20464;-88
2021/04/18 00:49:21;;;;;;;12.15;3.65;;;8.20;79.70;;;;;;4982475;28;20445;-88
2021/04/18 00:51:47;;;;;;;7.65;3.30;;;8.20;79.70;;;;;;4981777;28;20026;-87
2021/04/18 00:54:13;;;;;;;9.50;3.53;;;8.20;80.10;;;;;;4998012;28;20101;-87
2021/04/18 00:56:38;;;;;;;11.52;3.88;;;8.20;80.10;;;;;;4982209;28;20067;-88
2021/04/18 00:59:04;;;;;;;9.07;3.28;;;8.20;79.60;;;;;;4980501;28;20053;-88
2021/04/18 01:01:30;;;;;;;6.97;2.92;;;8.10;79.90;;;;;;4998122;28;20034;-88
2021/04/18 01:03:55;;;;;;;11.30;3.50;;;8.10;79.50;;;;;;4965569;28;20026;-89
2021/04/18 01:06:21;;;;;;;11.07;3.67;;;8.10;80.50;;;;;;4998314;28;20022;-87
2021/04/18 01:08:47;;;;;;;10.05;3.30;;;8.00;81.30;;;;;;4997587;28;20085;-88
2021/04/18 01:11:12;;;;;;;8.07;3.28;;;8.00;81.00;;;;;;4997491;28;20026;-87
2021/04/18 01:13:38;;;;;;;10.57;3.78;;;7.90;80.40;;;;;;4981463;28;20497;-86
2021/04/18 01:16:05;;;;;;;9.25;3.22;;;8.00;80.60;;;;;;4979849;28;20037;-86
2021/04/18 01:18:30;;;;;;;9.65;3.13;;;7.90;79.80;;;;;;4978196;28;20030;-87
2021/04/18 01:21:06;;;;;;;8.63;3.60;;;7.80;81.00;;;;;;4976045;28;20145;-88
2021/04/18 01:23:32;;;;;;;5.53;3.15;;;7.80;80.10;;;;;;5002972;28;20022;-87
2021/04/18 01:25:58;;;;;;;10.00;3.47;;;7.70;80.70;;;;;;4997182;28;20030;-88
2021/04/18 01:28:24;;;;;;;7.65;3.22;;;7.70;82.00;;;;;;4965531;28;20026;-88
2021/04/18 01:30:49;;;;;;;13.93;3.85;;;7.70;80.50;;;;;;4981539;28;20431;-88
2021/04/18 01:33:15;;;;;;;7.68;3.50;;;7.60;81.40;;;;;;4981211;28;20108;-88
2021/04/18 01:35:46;;;;;;;9.15;3.90;;;7.60;81.90;;;;;;4965165;28;20056;-87
2021/04/18 01:38:13;;;;;;;10.63;4.03;;;7.50;81.90;;;;;;4997647;28;20034;-88
2021/04/18 01:40:39;;;;;;;9.90;4.00;;;7.50;81.80;;;;;;5014780;28;20041;-88
2021/04/18 01:43:04;;;;;;;10.32;4.03;;;7.50;81.60;;;;;;4995987;28;20041;-88
2021/04/18 01:45:30;;;;;;;12.30;3.60;;;7.40;81.80;;;;;;4979852;28;20022;-88
2021/04/18 01:47:56;;;;;;;8.57;3.63;;;7.40;82.50;;;;;;4980869;28;20040;-88
2021/04/18 01:50:22;;;;;;;12.73;4.10;;;7.40;82.60;;;;;;4980659;28;20030;-88
2021/04/18 01:52:48;;;;;;;10.30;4.05;;;7.40;83.10;;;;;;4997019;28;20120;-88
2021/04/18 01:55:16;;;;;;;9.63;3.92;;;7.30;83.20;;;;;;4979291;28;20040;-88
2021/04/18 01:57:42;;;;;;;9.93;4.00;;;7.30;83.40;;;;;;4997369;28;20061;-88
2021/04/18 02:00:09;;;;;;;8.35;3.60;;;7.30;82.40;;;;;;5014175;28;20033;-88
2021/04/18 02:02:35;;;;;;;10.65;3.92;;;7.20;83.50;;;;;;4997376;28;20060;-87
2021/04/18 02:05:01;;;;;;;9.82;3.97;;;7.20;83.80;;;;;;4980306;28;20026;-89
2021/04/18 02:07:27;;;;;;;11.88;4.05;;;7.20;83.00;;;;;;5013857;28;20041;-87
2021/04/18 02:09:52;;;;;;;8.93;3.47;;;7.20;83.40;;;;;;4980764;28;20058;-88
2021/04/18 02:12:18;;;;;;;8.60;3.70;;;7.10;83.40;;;;;;4955732;28;20027;-88
2021/04/18 02:14:44;;;;;;;9.80;3.75;;;7.10;84.00;;;;;;4960230;28;20502;-88
2021/04/18 02:17:09;;;;;;;10.27;3.85;;;7.00;83.50;;;;;;4980962;28;20037;-88
2021/04/18 02:19:35;;;;;;;11.90;3.95;;;7.10;84.10;;;;;;5013048;28;20044;-88
2021/04/18 02:22:01;;;;;;;9.30;3.60;;;7.00;84.00;;;;;;4996557;28;20371;-88
2021/04/18 02:24:27;;;;;;;8.50;3.70;;;6.90;84.10;;;;;;4980391;28;20026;-88
2021/04/18 02:26:53;;;;;;;7.88;3.70;;;6.90;84.70;;;;;;5014087;28;20026;-88
2021/04/18 02:29:19;;;;;;;9.20;3.90;;;6.90;84.50;;;;;;4996374;28;20493;-88
2021/04/18 02:31:44;;;;;;;9.15;3.65;;;6.80;84.80;;;;;;4996857;28;20063;-88
2021/04/18 02:34:11;;;;;;;9.23;3.97;;;6.80;85.20;;;;;;4977590;28;20050;-88
2021/04/18 02:36:37;;;;;;;9.05;3.83;;;6.80;85.20;;;;;;4990866;28;20042;-88
2021/04/18 02:39:04;;;;;;;9.85;4.07;;;6.80;85.50;;;;;;4997143;28;20026;-89
2021/04/18 02:41:29;;;;;;;9.93;3.72;;;6.80;86.00;;;;;;4981082;28;20030;-88
2021/04/18 02:43:55;;;;;;;6.75;3.60;;;6.80;85.40;;;;;;4997062;28;20467;-88
2021/04/18 02:46:21;;;;;;;7.78;3.63;;;6.70;85.60;;;;;;4980906;28;20030;-88
2021/04/18 02:48:46;;;;;;;8.45;4.18;;;6.70;85.20;;;;;;4980692;28;20065;-88
2021/04/18 02:51:12;;;;;;;9.20;3.97;;;6.70;85.40;;;;;;4980773;28;20032;-88
2021/04/18 02:53:37;;;;;;;12.48;4.25;;;6.60;85.20;;;;;;4963711;28;20410;-87
2021/04/18 02:56:03;;;;;;;7.55;4.07;;;6.60;85.50;;;;;;4976308;28;20026;-89
2021/04/18 02:58:29;;;;;;;8.65;3.65;;;6.60;85.30;;;;;;4987436;28;20033;-88
2021/04/18 03:00:55;;;;;;;11.48;4.05;;;6.60;86.00;;;;;;4979799;28;20041;-88
2021/04/18 03:03:21;;;;;;;10.00;4.20;;;6.50;85.70;;;;;;4984687;28;20026;-88
2021/04/18 03:05:47;;;;;;;11.10;3.95;;;6.50;86.00;;;;;;4983562;28;20026;-88
2021/04/18 03:08:13;;;;;;;12.95;4.47;;;6.50;86.60;;;;;;4963893;28;20041;-88
2021/04/18 03:10:38;;;;;;;15.13;4.53;;;6.50;86.50;;;;;;4992509;28;20026;-89
2021/04/18 03:13:04;;;;;;;11.57;4.30;;;6.50;86.40;;;;;;4980621;28;20058;-87
2021/04/18 03:15:30;;;;;;;13.55;5.15;;;6.40;87.10;;;;;;4980479;28;20037;-88
2021/04/18 03:17:56;;;;;;;9.23;4.40;;;6.50;87.30;;;;;;4995919;28;20068;-88
2021/04/18 03:20:22;;;;;;;9.65;4.00;;;6.40;87.10;;;;;;4984063;28;20026;-89
2021/04/18 03:22:48;;;;;;;10.43;4.20;;;6.40;86.70;;;;;;4954059;28;20048;-88
2021/04/18 03:25:14;;;;;;;9.95;4.45;;;6.40;86.80;;;;;;4999380;28;20470;-88
2021/04/18 03:27:40;;;;;;;10.52;4.10;;;6.30;86.60;;;;;;5000021;28;20489;-89
2021/04/18 03:30:07;;;;;;;10.35;4.25;;;6.30;87.30;;;;;;4983215;28;20026;-88
2021/04/18 03:32:34;;;;;;;10.75;4.20;;;6.30;87.70;;;;;;5000041;28;20030;-88
2021/04/18 03:35:00;;;;;;;9.07;4.65;;;6.20;88.00;;;;;;4999782;28;20026;-89
2021/04/18 03:37:25;;;;;;;9.95;4.25;;;6.20;87.60;;;;;;4957586;28;20066;-88
2021/04/18 03:39:51;;;;;;;11.77;4.38;;;6.20;87.50;;;;;;4970899;28;20062;-89
2021/04/18 03:42:16;;;;;;;14.70;4.93;;;6.20;87.80;;;;;;4960368;28;20031;-89
2021/04/18 03:44:43;;;;;;;9.45;4.30;;;6.20;88.20;;;;;;4960729;28;20026;-88
2021/04/18 03:47:08;;;;;;;10.02;4.88;;;6.10;88.60;;;;;;4977594;28;20019;-89
2021/04/18 03:49:34;;;;;;;11.95;4.60;;;6.10;88.70;;;;;;4960581;28;20502;-88
2021/04/18 03:52:00;;;;;;;11.18;4.75;;;6.10;89.00;;;;;;4961080;28;20031;-88
2021/04/18 03:54:26;;;;;;;10.23;4.75;;;6.10;89.10;;;;;;4960757;28;20053;-87
2021/04/18 03:56:52;;;;;;;11.88;4.85;;;6.10;88.80;;;;;;4944660;28;20114;-89
2021/04/18 03:59:18;;;;;;;12.88;5.15;;;6.10;89.20;;;;;;4944566;28;20035;-89
2021/04/18 04:01:45;;;;;;;11.82;4.93;;;6.10;89.20;;;;;;4957684;28;20482;-89
2021/04/18 04:04:10;;;;;;;11.15;4.38;;;6.10;89.40;;;;;;4961382;28;20023;-89
2021/04/18 04:06:36;;;;;;;16.52;5.60;;;6.10;89.80;;;;;;4976659;28;20037;-88
2021/04/18 04:09:03;;;;;;;11.88;4.78;;;6.10;89.40;;;;;;4976601;28;20035;-88
2021/04/18 04:11:29;;;;;;;11.02;5.53;;;6.00;88.70;;;;;;4956722;29;20027;-88
2021/04/18 04:13:55;;;;;;;10.25;4.80;;;6.00;88.50;;;;;;4967964;28;20027;-89
2021/04/18 04:16:21;;;;;;;10.55;5.18;;;6.00;88.60;;;;;;4959997;28;20062;-88
2021/04/18 04:18:47;;;;;;;11.13;4.97;;;5.90;88.50;;;;;;4976493;28;20067;-88
2021/04/18 04:21:12;;;;;;;13.63;4.93;;;5.90;88.20;;;;;;4959647;28;20050;-88
2021/04/18 04:23:38;;;;;;;11.60;4.82;;;5.90;88.70;;;;;;4944024;28;20428;-89
2021/04/18 04:26:04;;;;;;;9.63;5.55;;;5.90;88.80;;;;;;4944238;28;20031;-88
2021/04/18 04:28:30;;;;;;;8.23;4.60;;;5.90;89.00;;;;;;4975073;28;20026;-88
2021/04/18 04:30:56;;;;;;;8.35;4.43;;;5.80;88.80;;;;;;4943634;28;20030;-89
2021/04/18 04:33:21;;;;;;;9.68;4.60;;;5.80;89.10;;;;;;4975893;28;20043;-89
2021/04/18 04:35:47;;;;;;;12.88;5.32;;;5.70;89.00;;;;;;4961554;28;20026;-89
2021/04/18 04:38:13;;;;;;;9.10;4.88;;;5.80;89.30;;;;;;5014401;28;20034;-88
2021/04/18 04:40:38;;;;;;;10.32;4.43;;;5.70;89.40;;;;;;4997611;28;20026;-90
2021/04/18 04:43:04;;;;;;;9.38;4.40;;;5.70;89.10;;;;;;4998503;28;20360;-89
2021/04/18 04:45:30;;;;;;;7.28;3.83;;;5.70;89.60;;;;;;4978830;28;20102;-88
2021/04/18 04:47:55;;;;;;;8.68;4.20;;;5.60;89.50;;;;;;4954458;28;20089;-89
2021/04/18 04:50:21;;;;;;;10.27;3.65;;;5.60;89.70;;;;;;4997829;28;20041;-86
2021/04/18 04:52:47;;;;;;;7.32;3.35;;;5.60;89.80;;;;;;4989784;28;20121;-87
2021/04/18 04:55:14;;;;;;;7.57;3.85;;;5.50;90.10;;;;;;4997822;28;20088;-88
2021/04/18 04:57:40;;;;;;;8.27;3.75;;;5.50;89.90;;;;;;4997975;28;20034;-88
2021/04/18 05:00:07;;;;;;;6.80;3.60;;;5.50;90.20;;;;;;4981925;28;20120;-87
2021/04/18 05:02:32;;;;;;;7.20;3.45;;;5.40;90.00;;;;;;4981515;28;20029;-87
2021/04/18 05:04:58;;;;;;;6.47;3.75;;;5.40;90.30;;;;;;4985448;28;20084;-87
2021/04/18 05:07:24;;;;;;;6.90;3.65;;;5.40;90.00;;;;;;4998002;28;20022;-87
2021/04/18 05:09:49;;;;;;;7.15;4.00;;;5.40;90.00;;;;;;4982705;28;20034;-87
2021/04/18 05:12:16;;;;;;;7.60;3.95;;;5.40;90.40;;;;;;4981163;28;20125;-88
2021/04/18 05:14:49;;;;;;;7.00;3.78;;;5.40;90.40;;;;;;4983479;28;20029;-87
2021/04/18 05:17:16;;;;;;;7.35;3.92;;;5.40;90.50;;;;;;5013081;28;20041;-88
2021/04/18 05:19:42;;;;;;;7.07;3.85;;;5.40;90.80;;;;;;4980472;28;20029;-88
2021/04/18 05:22:07;;;;;;;7.13;4.30;;;5.30;90.70;;;;;;4997607;28;20432;-88
2021/04/18 05:24:34;;;;;;;8.20;4.05;;;5.30;90.70;;;;;;4981125;28;20037;-88
2021/04/18 05:27:00;;;;;;;8.80;4.38;;;5.30;90.80;;;;;;4981143;28;20501;-86
2021/04/18 05:29:25;;;;;;;8.27;3.97;;;5.30;90.90;;;;;;4981024;28;20029;-88
2021/04/18 05:31:53;;;;;;;7.90;4.20;;;5.30;90.90;;;;;;4997156;28;20030;-88
2021/04/18 05:34:19;;;;;;;8.30;4.00;;;5.30;91.00;;;;;;4981591;28;20030;-89
2021/04/18 05:36:44;;;;;;;8.07;4.20;;;5.30;91.00;;;;;;4996768;28;20065;-88
2021/04/18 05:39:10;;;;;;;9.95;4.00;;;5.30;91.10;;;;;;4971004;28;20026;-87
2021/04/18 05:41:36;;;;;;;8.43;4.13;;;5.30;91.20;;;;;;4996902;28;20042;-88
2021/04/18 05:44:04;;;;;;;9.43;4.40;;;5.30;91.40;;;;;;4997960;28;20036;-87
2021/04/18 05:46:30;;;;;;;10.52;4.13;;;5.30;91.60;;;;;;4997383;28;20061;-88
2021/04/18 05:48:56;;;;;;;8.35;4.15;;;5.30;91.70;;;;;;4981038;28;20053;-87
2021/04/18 05:51:21;;;;;;;11.70;4.68;;;5.40;91.70;;;;;;4981308;28;20030;-88
2021/04/18 05:53:47;;;;;;;8.73;4.25;;;5.40;91.80;;;;;;4977772;28;20030;-88
2021/04/18 05:56:13;;;;;;;11.63;4.43;;;5.40;91.80;;;;;;4954708;28;20116;-88
2021/04/18 05:58:39;;;;;;;8.57;3.70;;;5.50;91.90;;;;;;4964741;28;20434;-87
2021/04/18 06:01:04;;;;;;;8.23;4.13;;;5.50;91.90;;;;;;4981000;28;20037;-89
2021/04/18 06:03:30;;;;;;;9.07;4.30;;;5.60;91.90;;;;;;4980412;28;20060;-89
2021/04/18 06:05:56;;;;;;;10.30;5.25;;;5.60;92.00;;;;;;4997043;28;20478;-89
2021/04/18 06:08:21;;;;;;;8.98;4.03;;;5.60;92.00;;;;;;4997196;28;20037;-88
2021/04/18 06:10:47;;;;;;;8.10;4.20;;;5.70;91.90;;;;;;4965019;28;20025;-88
2021/04/18 06:13:13;;;;;;;8.13;3.83;;;5.80;91.80;;;;;;4964836;28;20097;-89
2021/04/18 06:15:38;;;;;;;9.50;4.30;;;5.80;91.80;;;;;;4996527;28;20282;-88
2021/04/18 06:18:04;;;;;;;8.35;4.45;;;5.90;91.80;;;;;;4997178;28;20113;-88
2021/04/18 06:20:30;;;;;;;9.48;3.95;;;6.00;91.60;;;;;;5014759;28;20077;-88
2021/04/18 06:22:55;;;;;;;8.05;4.07;;;6.10;91.70;;;;;;4964506;28;20549;-87
2021/04/18 06:25:21;;;;;;;7.45;4.25;;;6.10;91.70;;;;;;4980694;28;20113;-88
2021/04/18 06:27:47;;;;;;;7.63;4.10;;;6.20;91.60;;;;;;4979690;28;20394;-87
2021/04/18 06:30:13;;;;;;;6.75;3.97;;;6.20;91.60;;;;;;4996028;28;20026;-87
2021/04/18 06:32:39;;;;;;;9.48;4.30;;;6.30;91.60;;;;;;5013924;28;20077;-88
2021/04/18 06:35:06;;;;;;;6.85;3.95;;;6.30;91.60;;;;;;4980611;28;20026;-89
2021/04/18 06:37:32;;;;;;;7.28;3.88;;;6.40;91.60;;;;;;4996213;28;20045;-89
2021/04/18 06:39:58;;;;;;;7.85;3.67;;;6.50;91.50;;;;;;4966823;28;20471;-89
2021/04/18 06:42:24;;;;;;;8.70;3.95;;;6.60;91.50;;;;;;4981367;28;20069;-90
2021/04/18 06:44:51;;;;;;;8.02;3.65;;;6.60;91.50;;;;;;4995529;28;20121;-89
2021/04/18 06:47:18;;;;;;;8.13;4.18;;;6.70;91.50;;;;;;5000283;28;20029;-89
2021/04/18 06:49:44;;;;;;;6.55;3.58;;;6.80;91.50;;;;;;5000452;28;20026;-90
2021/04/18 06:52:12;;;;;;;6.72;3.80;;;6.80;91.40;;;;;;4999880;28;20525;-89
2021/04/18 06:54:37;;;;;;;10.25;4.72;;;6.90;91.50;;;;;;5018088;28;20025;-89
2021/04/18 06:57:04;;;;;;;8.15;4.80;;;7.00;91.90;;;;;;4984562;28;20143;-89
2021/04/18 06:59:29;;;;;;;8.02;4.32;;;7.10;91.60;;;;;;4999830;28;20065;-88
2021/04/18 07:01:55;;;;;;;7.30;3.88;;;7.20;91.50;;;;;;5000041;28;20103;-88
2021/04/18 07:04:22;;;;;;;8.38;3.85;;;7.20;91.50;;;;;;4999851;28;20067;-88
2021/04/18 07:06:55;;;;;;;8.30;3.67;;;7.30;91.50;;;;;;5001535;28;20026;-89
2021/04/18 07:09:22;;;;;;;7.60;4.05;;;7.40;91.50;;;;;;4983609;28;20033;-89
2021/04/18 07:11:57;;;;;;;6.20;3.25;;;7.50;91.50;;;;;;4983867;28;20084;-88
2021/04/18 07:14:24;;;;;;;6.93;3.40;;;7.60;91.60;;;;;;5003900;28;20018;-90
2021/04/18 07:16:52;;;;;;;7.20;3.33;;;7.60;91.70;;;;;;4997901;28;20022;-90
2021/04/18 07:19:20;;;;;;;6.28;3.50;;;7.70;91.60;;;;;;4999147;28;20034;-89
2021/04/18 07:21:49;;;;;;;6.10;3.38;;;7.80;91.50;;;;;;4998928;28;20022;-88
2021/04/18 07:24:15;;;;;;;8.73;4.53;;;7.80;91.50;;;;;;5000078;28;20089;-88
2021/04/18 07:26:41;;;;;;;8.77;4.20;;;7.80;91.70;;;;;;4984246;28;20105;-88
2021/04/18 07:29:20;;;;;;;7.45;4.18;;;7.90;91.80;;;;;;4983510;28;20029;-89
2021/04/18 07:31:46;;;;;;;6.78;4.05;;;8.00;91.60;;;;;;5006492;28;20022;-89
2021/04/18 07:34:18;;;;;;;10.70;3.88;;;8.00;91.70;;;;;;5002227;28;20033;-89
2021/04/18 07:36:45;;;;;;;10.43;4.65;;;8.10;91.70;;;;;;4998825;28;20129;-90
2021/04/18 07:39:13;;;;;;;5.18;3.30;;;8.20;91.80;;;;;;4982395;28;20090;-89
2021/04/18 07:41:44;;;;;;;6.65;3.88;;;8.30;91.80;;;;;;4997288;28;20029;-90
2021/04/18 07:44:16;;;;;;;6.80;3.85;;;8.40;91.70;;;;;;4998771;28;20036;-89
2021/04/18 07:46:47;;;;;;;5.93;3.33;;;8.50;91.60;;;;;;4982286;28;20076;-89
2021/04/18 07:49:14;;;;;;;5.85;3.40;;;8.60;91.50;;;;;;4997811;28;20474;-90
2021/04/18 07:51:52;;;;;;;8.07;3.75;;;8.70;91.40;;;;;;4997989;28;20037;-89
2021/04/18 07:54:18;;;;;;;8.00;4.20;;;8.90;91.30;;;;;;4982655;28;20056;-89
2021/04/18 07:56:46;;;;;;;4.57;3.00;;;9.00;91.20;;;;;;4998414;28;20483;-89
2021/04/18 07:59:21;;;;;;;7.80;3.50;;;9.20;91.00;;;;;;4998835;28;20037;-90
2021/04/18 08:01:47;;;;;;;8.25;3.72;;;9.30;90.90;;;;;;4997808;28;20026;-88
2021/04/18 08:04:17;;;;;;;7.70;3.47;;;9.40;90.80;;;;;;4978461;28;20041;-88
2021/04/18 08:06:42;;;;;;;6.15;3.30;;;9.50;90.60;;;;;;4998061;28;20251;-89
2021/04/18 08:09:20;;;;;;;7.15;3.40;;;9.70;90.50;;;;;;4998111;28;20538;-88
2021/04/18 08:12:12;;;;;;;5.95;3.17;;;9.80;90.30;;;;;;4998811;28;20034;-88
2021/04/18 08:14:42;;;;;;;5.82;3.53;;;10.00;90.20;;;;;;4987461;28;20074;-89
2021/04/18 08:17:09;;;;;;;6.90;3.20;;;10.10;90.00;;;;;;4995007;28;20064;-88
2021/04/18 08:19:35;;;;;;;5.60;2.75;;;10.20;89.50;;;;;;5010412;28;20038;-89
2021/04/18 08:22:02;;;;;;;5.30;2.78;;;10.40;89.60;;;;;;4981847;28;20036;-89
2021/04/18 08:24:32;;;;;;;5.28;2.92;;;10.60;89.00;;;;;;4994237;28;20029;-89
2021/04/18 08:27:12;;;;;;;5.03;2.65;;;10.70;88.50;;;;;;4997805;28;20032;-86
2021/04/18 08:29:58;;;;;;;5.18;2.22;;;10.90;88.00;;;;;;4993962;28;20474;-87
2021/04/18 08:32:54;;;;;;;6.80;2.95;;;11.00;86.70;;;;;;4984722;28;20057;-87
2021/04/18 08:35:22;;;;;;;5.75;2.60;;;11.20;86.00;;;;;;4970614;28;20187;-88
2021/04/18 08:38:13;;;;;;;6.10;2.60;;;11.30;85.40;;;;;;4979207;28;20061;-90
2021/04/18 08:40:40;;;;;;;5.35;2.47;;;11.40;84.30;;;;;;5012230;28;20368;-89
2021/04/18 08:43:25;;;;;;;5.03;2.55;;;11.50;83.80;;;;;;4991104;28;20022;-89
2021/04/18 08:45:54;;;;;;;4.70;2.28;;;11.60;83.50;;;;;;4990144;28;20022;-88
2021/04/18 08:48:20;;;;;;;6.55;2.78;;;11.70;83.00;;;;;;4989929;28;20077;-88
2021/04/18 08:50:58;;;;;;;4.93;2.70;;;11.80;81.80;;;;;;4994912;28;20044;-87
2021/04/18 08:53:28;;;;;;;5.40;2.72;;;12.00;81.50;;;;;;4996100;28;20088;-88
2021/04/18 08:56:02;;;;;;;5.85;3.03;;;12.10;80.90;;;;;;4995698;28;20018;-88
2021/04/18 08:58:33;;;;;;;6.30;2.70;;;12.20;80.60;;;;;;4994013;28;20060;-88
2021/04/18 09:01:12;;;;;;;;;;;12.40;80.70;;;;;;4995858;28;20042;-88
2021/04/18 09:03:39;;;;;;;5.57;2.28;;;12.50;80.00;;;;;;5011997;28;19909;-87
2021/04/18 09:06:21;;;;;;;6.35;2.50;;;12.60;79.30;;;;;;5012461;28;20034;-88
2021/04/18 09:08:52;;;;;;;4.32;2.03;;;12.70;77.50;;;;;;4989087;28;20060;-89
2021/04/18 09:11:18;;;;;;;5.30;2.15;;;12.70;76.50;;;;;;4997250;28;20033;-88
2021/04/18 09:13:54;;;;;;;5.03;2.60;;;12.80;76.10;;;;;;4996301;28;20113;-88
2021/04/18 09:16:39;;;;;;;4.45;2.53;;;12.90;74.90;;;;;;5000381;28;20598;-88
2021/04/18 09:19:19;;;;;;;3.80;2.13;;;13.00;74.20;;;;;;5011607;28;20052;-88
2021/04/18 09:22:04;;;;;;;5.53;2.15;;;13.10;74.60;;;;;;4994734;28;20098;-88
2021/04/18 09:24:31;;;;;;;4.82;2.20;;;13.20;74.50;;;;;;5000117;28;20041;-88
2021/04/18 09:27:07;;;;;;;3.85;2.25;;;13.40;74.00;;;;;;4996146;28;20459;-88
2021/04/18 09:29:35;;;;;;;3.55;1.98;;;13.50;72.90;;;;;;4996401;28;20374;-89
2021/04/18 09:32:07;;;;;;;3.00;1.63;;;13.60;72.20;;;;;;4996976;28;20034;-88
2021/04/18 09:34:35;;;;;;;6.07;2.40;;;13.70;72.30;;;;;;4996532;28;20025;-88
2021/04/18 09:37:06;;;;;;;4.95;2.10;;;13.90;71.40;;;;;;5015400;28;20042;-88
2021/04/18 09:39:33;;;;;;;5.68;2.47;;;14.00;70.90;;;;;;4986629;28;20029;-88
2021/04/18 09:42:00;;;;;;;6.82;2.00;;;14.10;69.90;;;;;;5013795;28;20101;-88
2021/04/18 09:44:47;;;;;;;5.55;2.20;;;14.30;70.10;;;;;;4973027;28;20072;-88
2021/04/18 09:47:18;;;;;;;4.38;2.08;;;14.40;70.00;;;;;;4996233;28;20548;-87
2021/04/18 09:49:56;;;;;;;5.45;2.53;;;14.50;68.80;;;;;;5013812;28;20030;-89
2021/04/18 09:52:27;;;;;;;4.03;1.98;;;14.60;69.00;;;;;;4996561;28;20014;-92
2021/04/18 09:54:53;;;;;;;;;;;14.70;67.90;;;;;;5006418;28;20475;-91
2021/04/18 09:57:22;;;;;;;5.90;2.28;;;14.80;67.10;;;;;;4998675;28;19906;-88
2021/04/18 10:00:02;;;;;;;4.80;2.38;;;15.00;67.50;;;;;;4995025;28;20060;-90
2021/04/18 10:02:28;;;;;;;4.18;2.45;;;15.10;66.30;;;;;;4993768;28;20018;-78
2021/04/18 10:05:13;;;;;;;5.32;3.00;;;15.20;65.80;;;;;;4975674;28;20845;-76
2021/04/18 10:07:40;;;;;;;6.68;3.17;;;15.30;66.00;;;;;;4992659;28;20018;-75
2021/04/18 10:10:06;;;;;;;7.05;3.08;;;15.50;64.80;;;;;;5010746;28;20032;-78
2021/04/18 10:12:46;;;;;;;5.47;2.85;;;15.60;63.90;;;;;;4993094;28;20034;-76
2021/04/18 10:15:12;;;;;;;6.88;2.90;;;15.60;64.60;;;;;;4995399;28;20021;-78
2021/04/18 10:17:38;;;;;;;5.95;3.20;;;15.70;65.40;;;;;;5014484;28;20029;-76
2021/04/18 10:20:06;;;;;;;8.60;2.92;;;15.90;65.20;;;;;;5007312;28;20535;-76
2021/04/18 10:22:31;;;;;;;7.80;3.72;;;15.90;64.00;;;;;;5000776;28;20022;-75
2021/04/18 10:24:58;;;;;;;4.57;3.03;;;16.00;63.40;;;;;;5012738;28;20180;-74
2021/04/18 10:27:30;;;;;;;7.15;3.60;;;16.10;63.90;;;;;;5013399;28;20026;-75
2021/04/18 10:29:57;;;;;;;6.22;3.58;;;16.20;63.80;;;;;;5012575;28;20362;-74
2021/04/18 10:32:23;;;;;;;6.47;3.65;;;16.30;62.80;;;;;;5014009;28;20033;-74
2021/04/18 10:34:52;;;;;;;6.55;3.33;;;16.40;63.10;;;;;;5014552;28;20041;-75
2021/04/18 10:37:18;;;;;;;6.60;3.45;;;16.50;61.70;;;;;;5014884;28;20132;-74
2021/04/18 10:39:44;;;;;;;7.85;3.65;;;16.50;61.00;;;;;;5014603;28;20607;-74
2021/04/18 10:42:11;;;;;;;5.28;3.10;;;16.60;59.90;;;;;;5014786;28;20534;-73
2021/04/18 10:44:37;;;;;;;8.23;3.40;;;16.60;60.60;;;;;;5014694;28;20534;-74
2021/04/18 10:47:05;;;;;;;7.68;4.15;;;16.70;60.10;;;;;;5014299;28;20030;-75
2021/04/18 10:49:31;;;;;;;6.78;3.60;;;16.70;59.40;;;;;;5014887;28;20065;-75
2021/04/18 10:51:58;;;;;;;6.28;3.58;;;16.80;58.00;;;;;;5014382;28;20026;-75
2021/04/18 10:54:24;;;;;;;8.05;3.67;;;16.80;58.20;;;;;;5014960;28;20025;-74
2021/04/18 10:56:51;;;;;;;6.63;4.00;;;16.80;57.10;;;;;;5014504;28;20382;-76
2021/04/18 10:59:17;;;;;;;7.88;3.97;;;16.80;56.60;;;;;;5014578;28;20041;-79
2021/04/18 11:01:43;;;;;;;6.28;3.10;;;16.80;57.50;;;;;;4994373;28;20379;-88
2021/04/18 11:04:10;;;;;;;5.57;3.60;;;16.80;58.60;;;;;;5015855;28;20064;-88
2021/04/18 11:06:36;;;;;;;5.47;3.08;;;16.90;58.50;;;;;;4978295;28;20500;-78
2021/04/18 11:09:03;;;;;;;6.65;3.17;;;17.00;56.70;;;;;;5001653;28;20057;-85
2021/04/18 11:11:30;;;;;;;6.40;3.58;;;17.10;58.10;;;;;;4997614;28;20141;-86
2021/04/18 11:13:56;;;;;;;5.05;3.08;;;17.20;57.30;;;;;;5015293;28;20040;-92
2021/04/18 11:16:21;;;;;;;7.10;3.22;;;17.30;57.30;;;;;;4998406;28;20109;-88
2021/04/18 11:18:47;;;;;;;6.50;2.95;;;17.40;57.10;;;;;;4981371;28;20034;-88
2021/04/18 11:21:13;;;;;;;6.00;3.13;;;17.50;58.50;;;;;;5014746;28;20030;-88
2021/04/18 11:23:40;;;;;;;4.35;2.65;;;17.60;58.80;;;;;;4981919;28;20036;-88
2021/04/18 11:26:06;;;;;;;5.72;3.10;;;17.70;58.50;;;;;;5013511;28;20116;-88
2021/04/18 11:28:31;;;;;;;6.78;4.28;;;17.80;56.90;;;;;;4997065;28;20137;-88
2021/04/18 11:30:58;;;;;;;6.55;3.60;;;17.90;56.20;;;;;;4961446;28;20038;-88
2021/04/18 11:33:24;;;;;;;6.05;3.40;;;18.00;56.80;;;;;;5011490;28;20022;-88
2021/04/18 11:35:50;;;;;;;5.65;3.22;;;18.10;57.40;;;;;;4996883;28;20053;-88
2021/04/18 11:38:16;;;;;;;7.50;3.75;;;18.20;57.80;;;;;;4980553;28;20100;-88
2021/04/18 11:40:42;;;;;;;8.43;3.65;;;18.40;57.30;;;;;;4997181;28;20466;-88
2021/04/18 11:43:08;;;;;;;7.95;3.83;;;18.50;56.10;;;;;;4977507;28;20394;-89
2021/04/18 11:45:33;;;;;;;6.53;3.55;;;18.60;55.70;;;;;;4993766;28;20117;-87
2021/04/18 11:47:59;;;;;;;6.80;3.83;;;18.70;56.30;;;;;;5006090;28;20065;-89
2021/04/18 11:50:25;;;;;;;6.03;3.40;;;18.90;56.10;;;;;;4965939;28;20383;-90
2021/04/18 11:52:52;;;;;;;5.90;3.50;;;19.00;55.40;;;;;;4997735;28;20368;-90
2021/04/18 11:55:20;;;;;;;6.72;3.63;;;19.10;54.40;;;;;;4997204;28;20029;-87
2021/04/18 11:57:46;;;;;;;7.63;3.78;;;19.20;54.50;;;;;;4964106;28;20038;-86
2021/04/18 12:00:12;;;;;;;5.40;3.50;;;19.30;53.40;;;;;;4990898;28;20060;-88
2021/04/18 12:02:39;;;;;;;7.75;3.58;;;19.40;53.90;;;;;;4997648;28;20152;-89
2021/04/18 12:05:06;;;;;;;9.48;4.05;;;19.50;53.90;;;;;;5014916;28;20033;-86
2021/04/18 12:07:32;;;;;;;6.43;3.78;;;19.60;52.00;;;;;;4996636;28;20037;-88
2021/04/18 12:09:58;;;;;;;7.82;3.50;;;19.60;52.40;;;;;;4996700;28;20037;-87
2021/04/18 12:12:24;;;;;;;6.05;3.78;;;19.70;52.40;;;;;;4996557;28;20069;-87
2021/04/18 12:14:53;;;;;;;6.00;3.08;;;19.80;52.80;;;;;;4981115;28;20072;-89
2021/04/18 12:17:19;;;;;;;6.70;3.53;;;19.90;53.20;;;;;;4998479;28;20049;-89
2021/04/18 12:19:44;;;;;;;6.50;3.33;;;20.00;51.50;;;;;;4997934;28;20056;-89
2021/04/18 12:22:10;;;;;;;8.25;3.33;;;20.00;50.90;;;;;;4962225;28;20093;-90
2021/04/18 12:24:36;;;;;;;6.25;3.80;;;20.10;51.30;;;;;;4976680;28;20772;-80
2021/04/18 12:27:02;;;;;;;7.18;3.60;;;20.20;50.30;;;;;;4985686;28;20105;-84
2021/04/18 12:29:28;;;;;;;6.53;3.38;;;20.30;51.00;;;;;;4994031;28;20037;-84
2021/04/18 12:31:54;;;;;;;5.65;3.13;;;20.30;50.90;;;;;;4980915;28;20036;-87
2021/04/18 12:34:19;;;;;;;5.25;3.05;;;20.40;50.90;;;;;;4995709;28;20033;-89
2021/04/18 12:36:45;;;;;;;6.35;3.60;;;20.50;50.80;;;;;;4963845;28;20104;-86
2021/04/18 12:39:10;;;;;;;7.18;3.53;;;20.60;49.90;;;;;;5011943;28;20042;-84
2021/04/18 12:41:36;;;;;;;6.82;3.78;;;20.60;49.40;;;;;;5012414;28;20493;-83
2021/04/18 12:44:02;;;;;;;5.72;3.35;;;20.60;49.50;;;;;;4994569;28;20467;-82
2021/04/18 12:46:28;;;;;;;9.10;3.78;;;20.70;49.40;;;;;;4994727;28;20030;-84
2021/04/18 12:48:54;;;;;;;6.55;3.72;;;20.70;49.10;;;;;;4978505;28;20072;-85
2021/04/18 12:51:20;;;;;;;8.73;4.35;;;20.80;49.10;;;;;;5011885;28;20022;-83
2021/04/18 12:53:46;;;;;;;8.15;3.63;;;20.80;47.70;;;;;;4962266;28;20034;-83